Time;durP1;ratioP1;P1;durP2;ratioP2;P2;SDS_P1;SDS_P2;PMS_P1;PMS_P2;Temp;Humidity;BMP_temperature;BMP_pressure;BME280_temperature;BME280_humidity;BME280_pressure;Samples;Min_cycle;Max_cycle;Signal;HPM_P1;HPM_P2
2020/12/14 00:01:13;;;;;;;27.08;13.10;;;;;;;-4.61;96.33;102099.16;2578963;55;20679;-76
2020/12/14 00:03:40;;;;;;;18.55;9.50;;;;;;;-4.63;94.82;102080.00;2578796;55;20126;-76
2020/12/14 00:06:08;;;;;;;18.83;9.65;;;;;;;-4.63;95.00;102076.56;2578784;55;20109;-73
2020/12/14 00:08:36;;;;;;;20.98;11.25;;;;;;;-4.57;94.87;102073.13;2578741;55;20646;-74
2020/12/14 00:11:03;;;;;;;19.00;10.40;;;;;;;-4.60;94.32;102073.97;2578749;55;20121;-76
2020/12/14 00:13:30;;;;;;;20.73;10.52;;;;;;;-4.60;94.19;102068.75;2578705;55;20119;-75
2020/12/14 00:15:58;;;;;;;12.98;7.60;;;;;;;-4.62;94.07;102066.12;2578763;55;20639;-76
2020/12/14 00:18:26;;;;;;;17.87;9.43;;;;;;;-4.70;94.77;102057.37;2578792;55;20635;-75
2020/12/14 00:20:53;;;;;;;16.23;8.80;;;;;;;-4.61;94.96;102067.91;2578801;55;20125;-74
2020/12/14 00:23:21;;;;;;;16.27;8.00;;;;;;;-4.58;94.98;102071.38;2578786;55;20125;-75
2020/12/14 00:25:48;;;;;;;16.85;7.62;;;;;;;-4.59;94.88;102072.25;2578932;55;20125;-74
2020/12/14 00:28:15;;;;;;;14.25;6.53;;;;;;;-4.65;94.33;102079.12;2578713;55;20130;-73
2020/12/14 00:30:43;;;;;;;14.25;7.97;;;;;;;-4.65;95.20;102071.31;2578651;55;21407;-73
2020/12/14 00:33:11;;;;;;;14.63;8.27;;;;;;;-4.71;94.93;102076.47;2578664;55;20117;-75
2020/12/14 00:35:38;;;;;;;13.68;7.22;;;;;;;-4.76;95.38;102060.81;2578847;55;20178;-73
2020/12/14 00:38:05;;;;;;;12.95;6.97;;;;;;;-4.78;95.62;102067.69;2578619;55;20114;-73
2020/12/14 00:40:33;;;;;;;11.52;6.70;;;;;;;-4.84;96.07;102058.97;2578843;55;20632;-73
2020/12/14 00:43:00;;;;;;;15.18;7.70;;;;;;;-4.90;96.07;102059.78;2578671;55;20581;-74
2020/12/14 00:45:27;;;;;;;14.63;6.57;;;;;;;-4.90;96.29;102060.66;2578845;55;20169;-75
2020/12/14 00:47:55;;;;;;;13.48;6.85;;;;;;;-4.95;96.54;102057.13;2578786;55;20139;-75
2020/12/14 00:50:23;;;;;;;14.32;8.68;;;;;;;-4.99;96.72;102057.94;2578721;55;20105;-75
2020/12/14 00:52:50;;;;;;;14.73;7.70;;;;;;;-4.94;96.68;102052.78;2578771;55;20105;-74
2020/12/14 00:55:18;;;;;;;13.23;7.70;;;;;;;-4.93;96.05;102059.75;2578670;55;20121;-73
2020/12/14 00:57:45;;;;;;;15.90;7.57;;;;;;;-4.93;96.37;102055.41;2578734;55;20113;-75
2020/12/14 01:00:13;;;;;;;14.68;8.25;;;;;;;-4.91;96.16;102058.03;2578572;55;20175;-75
2020/12/14 01:02:40;;;;;;;15.95;7.43;;;;;;;-4.97;96.16;102057.94;2578637;55;20523;-73
2020/12/14 01:05:07;;;;;;;16.87;9.35;;;;;;;-4.99;96.29;102057.06;2578604;55;20109;-73
2020/12/14 01:07:35;;;;;;;14.55;7.05;;;;;;;-4.96;96.35;102068.38;2578708;55;20170;-75
2020/12/14 01:10:03;;;;;;;14.85;7.68;;;;;;;-5.02;96.57;102060.50;2578789;55;20131;-73
2020/12/14 01:12:32;;;;;;;15.77;7.10;;;;;;;-5.05;96.40;102053.56;2578709;55;20143;-75
2020/12/14 01:14:59;;;;;;;11.52;6.47;;;;;;;-5.05;96.84;102066.56;2578637;55;20123;-74
2020/12/14 01:17:26;;;;;;;13.93;7.12;;;;;;;-5.06;96.69;102059.63;2573933;55;20169;-73
2020/12/14 01:19:53;;;;;;;15.75;8.32;;;;;;;-5.03;96.02;102069.16;2578682;55;20117;-74
2020/12/14 01:22:21;;;;;;;13.60;7.65;;;;;;;-5.01;96.23;102061.38;2578447;55;20125;-75
2020/12/14 01:24:49;;;;;;;13.20;7.65;;;;;;;-4.95;96.04;102071.88;2573547;55;20125;-73
2020/12/14 01:27:17;;;;;;;13.07;6.70;;;;;;;-5.20;95.74;102017.81;2578341;55;20131;-73
2020/12/14 01:29:44;;;;;;;12.75;7.12;;;;;;;-4.95;96.22;102070.13;2578500;55;20121;-74
2020/12/14 01:32:12;;;;;;;13.32;7.80;;;;;;;-4.94;95.83;102071.03;2578509;55;20127;-76
2020/12/14 01:34:39;;;;;;;12.27;6.35;;;;;;;-5.04;95.84;102051.81;2578525;55;20122;-75
2020/12/14 01:37:06;;;;;;;13.95;6.85;;;;;;;-4.95;95.92;102080.53;2578622;55;20120;-75
2020/12/14 01:39:34;;;;;;;11.98;6.87;;;;;;;-4.96;96.30;102085.72;2578475;55;20118;-74
2020/12/14 01:42:02;;;;;;;13.70;6.85;;;;;;;-4.97;96.59;102078.78;2578352;55;20127;-73
2020/12/14 01:44:30;;;;;;;15.88;9.18;;;;;;;-4.95;96.55;102075.34;2578509;55;20177;-75
2020/12/14 01:47:00;;;;;;;14.10;7.68;;;;;;;-4.94;96.80;102077.09;2578520;55;20120;-76
2020/12/14 01:49:27;;;;;;;15.85;7.62;;;;;;;-4.96;96.19;102073.59;2578357;55;20101;-75
2020/12/14 01:51:55;;;;;;;12.55;6.80;;;;;;;-4.93;96.44;102076.22;2578487;55;20316;-74
2020/12/14 01:54:27;;;;;;;14.75;7.82;;;;;;;-4.84;96.24;102085.00;2578556;55;20105;-74
2020/12/14 01:56:55;;;;;;;13.05;8.38;;;;;;;-4.87;96.00;102084.97;2578504;55;20140;-73
2020/12/14 01:59:24;;;;;;;14.25;9.05;;;;;;;-4.87;96.00;102084.97;2578420;55;20118;-74
2020/12/14 02:01:52;;;;;;;14.93;7.40;;;;;;;-4.89;96.12;102080.63;2573374;55;20121;-75
2020/12/14 02:04:20;;;;;;;14.02;8.45;;;;;;;-4.86;95.98;102081.50;2578394;55;20105;-76
2020/12/14 02:06:47;;;;;;;14.90;7.50;;;;;;;-4.86;96.18;102091.94;2573622;55;20121;-74
2020/12/14 02:09:14;;;;;;;14.43;8.10;;;;;;;-4.86;96.04;102081.50;2578347;55;20127;-74
2020/12/14 02:11:42;;;;;;;15.32;8.07;;;;;;;-4.94;96.05;102063.22;2573214;55;20123;-74
2020/12/14 02:14:09;;;;;;;13.30;8.05;;;;;;;-4.85;95.91;102083.25;2578387;55;20113;-76
2020/12/14 02:16:37;;;;;;;13.52;7.57;;;;;;;-4.86;95.76;102073.69;2578302;55;20109;-75
2020/12/14 02:19:05;;;;;;;17.08;7.53;;;;;;;-4.87;95.68;102075.41;2578280;55;20106;-76
2020/12/14 02:21:32;;;;;;;14.05;8.45;;;;;;;-4.84;96.07;102079.78;2578315;55;20114;-73
2020/12/14 02:23:59;;;;;;;13.68;7.43;;;;;;;-4.84;95.90;102077.19;2578422;55;20129;-75
2020/12/14 02:26:28;;;;;;;16.10;8.75;;;;;;;-4.82;96.11;102080.69;2578146;55;20629;-76
2020/12/14 02:28:55;;;;;;;15.43;7.05;;;;;;;-4.80;95.70;102076.38;2578444;55;20127;-76
2020/12/14 02:31:22;;;;;;;18.85;8.98;;;;;;;-4.80;96.07;102078.97;2578231;55;20261;-73
2020/12/14 02:33:50;;;;;;;16.92;9.40;;;;;;;-4.79;95.77;102073.78;2578280;55;20117;-75
2020/12/14 02:36:17;;;;;;;16.20;8.45;;;;;;;-4.80;95.68;102076.38;2578288;55;20120;-74
2020/12/14 02:38:44;;;;;;;18.17;9.68;;;;;;;-4.80;95.93;102068.56;2578242;55;20114;-75
2020/12/14 02:41:12;;;;;;;15.38;7.72;;;;;;;-4.82;96.25;102075.47;2578263;55;20117;-74
2020/12/14 02:43:40;;;;;;;15.73;9.55;;;;;;;-4.83;96.05;102068.50;2573242;55;20669;-76
2020/12/14 02:46:07;;;;;;;13.23;8.23;;;;;;;-4.85;96.52;102063.31;2578326;55;20139;-73
2020/12/14 02:48:34;;;;;;;14.80;7.70;;;;;;;-4.86;96.08;102071.09;2578224;55;20105;-73
2020/12/14 02:51:02;;;;;;;15.50;8.77;;;;;;;-4.83;95.95;102065.91;2578227;55;20545;-76
2020/12/14 02:53:29;;;;;;;17.42;8.48;;;;;;;-4.83;96.28;102065.91;2578292;55;20603;-73
2020/12/14 02:55:56;;;;;;;13.45;7.90;;;;;;;-4.83;96.36;102065.91;2578520;55;20546;-75
2020/12/14 02:58:24;;;;;;;11.85;7.55;;;;;;;-4.80;96.37;102061.59;2578387;55;20177;-75
2020/12/14 03:00:52;;;;;;;16.60;7.82;;;;;;;-4.76;96.25;102067.72;2578157;55;20162;-76
2020/12/14 03:03:20;;;;;;;17.20;9.07;;;;;;;-4.76;96.57;102067.72;2578259;55;20110;-76
2020/12/14 03:05:47;;;;;;;14.60;8.90;;;;;;;-4.75;96.59;102066.88;2578260;55;20551;-73
2020/12/14 03:08:15;;;;;;;16.92;8.90;;;;;;;-4.76;96.55;102058.19;2578178;55;20125;-75
2020/12/14 03:10:42;;;;;;;16.08;9.50;;;;;;;-4.74;96.10;102060.81;2578847;55;20105;-75
2020/12/14 03:13:10;;;;;;;17.87;9.93;;;;;;;-4.71;96.38;102062.56;2579003;55;20118;-73
2020/12/14 03:15:39;;;;;;;19.30;9.85;;;;;;;-4.70;96.52;102059.09;2578991;55;20113;-73
2020/12/14 03:18:08;;;;;;;20.65;9.75;;;;;;;-4.72;96.43;102059.06;2578821;55;20112;-75
2020/12/14 03:20:35;;;;;;;18.48;9.25;;;;;;;-4.76;96.14;102066.00;2578917;55;20117;-73
2020/12/14 03:23:02;;;;;;;20.75;10.95;;;;;;;-4.77;96.58;102066.84;2578905;55;20121;-73
2020/12/14 03:25:30;;;;;;;15.73;9.63;;;;;;;-4.77;96.81;102071.19;2578996;55;20125;-75
2020/12/14 03:27:57;;;;;;;22.70;11.40;;;;;;;-4.79;96.81;102068.56;2578963;55;20196;-75
2020/12/14 03:30:25;;;;;;;20.77;12.37;;;;;;;-4.76;96.92;102065.13;2573716;55;20125;-75
2020/12/14 03:32:52;;;;;;;21.55;12.52;;;;;;;-4.74;97.11;102066.00;2578894;55;20754;-74
2020/12/14 03:35:20;;;;;;;16.98;9.75;;;;;;;-4.70;96.61;102067.81;2578839;55;20140;-73
2020/12/14 03:37:47;;;;;;;21.95;10.73;;;;;;;-4.72;96.78;102058.22;2578879;55;20113;-76
2020/12/14 03:40:16;;;;;;;20.67;10.35;;;;;;;-4.69;96.49;102069.53;2579018;55;20157;-75
2020/12/14 03:42:43;;;;;;;20.12;10.85;;;;;;;-4.68;95.88;102065.19;2578897;55;20128;-76
2020/12/14 03:45:10;;;;;;;17.33;11.18;;;;;;;-4.69;95.52;102051.31;2578858;55;20166;-76
2020/12/14 03:47:38;;;;;;;14.95;8.82;;;;;;;-4.70;96.07;102060.00;2578843;55;20174;-73
2020/12/14 03:50:05;;;;;;;13.35;7.55;;;;;;;-4.72;95.93;102061.69;2578836;55;20122;-73
2020/12/14 03:52:34;;;;;;;15.05;9.20;;;;;;;-4.71;96.36;102063.47;2579131;55;20117;-73
2020/12/14 03:55:02;;;;;;;16.20;8.95;;;;;;;-4.76;96.36;102071.22;2578810;55;20125;-73
2020/12/14 03:57:30;;;;;;;15.70;9.15;;;;;;;-4.76;96.81;102067.72;2579164;55;20657;-76
2020/12/14 03:59:57;;;;;;;17.37;8.68;;;;;;;-4.77;96.80;102066.00;2578733;55;20123;-75
2020/12/14 04:02:27;;;;;;;15.52;9.45;;;;;;;-4.76;96.79;102071.22;2578685;55;20156;-75
2020/12/14 04:04:54;;;;;;;15.85;8.60;;;;;;;-4.78;97.19;102067.69;2578747;55;20106;-73
2020/12/14 04:07:22;;;;;;;14.80;8.20;;;;;;;-4.76;97.48;102067.72;2578775;55;20147;-76
2020/12/14 04:09:51;;;;;;;18.55;10.38;;;;;;;-4.75;97.38;102064.25;2578839;55;20108;-73
2020/12/14 04:12:18;;;;;;;18.33;8.32;;;;;;;-4.76;97.74;102057.31;2578591;55;20114;-75
2020/12/14 04:14:45;;;;;;;15.70;7.75;;;;;;;-4.82;97.64;102052.03;2578689;55;20128;-73
2020/12/14 04:17:12;;;;;;;16.65;9.52;;;;;;;-4.75;98.03;102059.06;2578806;55;20113;-75
2020/12/14 04:19:40;;;;;;;18.33;9.68;;;;;;;-4.75;97.82;102049.53;2578810;55;20259;-75
2020/12/14 04:22:08;;;;;;;14.63;8.60;;;;;;;-4.72;97.33;102040.84;2578753;55;20109;-73
2020/12/14 04:24:35;;;;;;;16.73;9.75;;;;;;;-4.68;96.81;102053.06;2578780;55;20489;-74
2020/12/14 04:27:04;;;;;;;16.10;7.93;;;;;;;-4.68;96.80;102053.06;2578720;55;20117;-76
2020/12/14 04:29:31;;;;;;;19.40;9.27;;;;;;;-4.67;96.32;102044.38;2578803;55;20118;-73
2020/12/14 04:31:59;;;;;;;19.02;8.40;;;;;;;-4.65;95.85;102045.25;2578771;55;20651;-76
2020/12/14 04:34:26;;;;;;;17.67;9.75;;;;;;;-4.63;95.76;102038.31;2578692;55;20157;-73
2020/12/14 04:36:53;;;;;;;18.83;9.57;;;;;;;-4.63;96.12;102042.69;2578659;55;20143;-75
2020/12/14 04:39:21;;;;;;;18.55;9.13;;;;;;;-4.64;95.91;102041.78;2578682;55;20194;-73
2020/12/14 04:41:48;;;;;;;15.27;8.98;;;;;;;-4.65;95.98;102042.66;2578872;55;20120;-75
2020/12/14 04:44:17;;;;;;;15.15;9.00;;;;;;;-4.65;96.46;102045.25;2578608;55;20113;-75
2020/12/14 04:46:45;;;;;;;14.38;9.40;;;;;;;-4.65;96.18;102045.25;2578576;55;20550;-76
2020/12/14 04:49:12;;;;;;;15.45;8.50;;;;;;;-4.70;96.23;102041.75;2578756;55;20651;-76
2020/12/14 04:51:39;;;;;;;17.40;8.50;;;;;;;-4.66;96.46;102047.84;2578695;55;20638;-76
2020/12/14 04:54:07;;;;;;;15.90;9.40;;;;;;;-4.66;96.78;102047.84;2578430;55;20117;-73
2020/12/14 04:56:39;;;;;;;16.83;8.55;;;;;;;-4.64;97.25;102056.56;2578629;55;20121;-73
2020/12/14 04:59:07;;;;;;;17.48;10.35;;;;;;;-4.66;97.07;102048.72;2578574;55;20128;-76
2020/12/14 05:01:36;;;;;;;20.27;9.50;;;;;;;-4.66;96.92;102053.94;2578305;55;20135;-76
2020/12/14 05:04:03;;;;;;;15.35;8.57;;;;;;;-4.75;96.78;102049.53;2578507;55;20113;-76
2020/12/14 05:06:49;;;;;;;16.08;9.05;;;;;;;-4.66;96.99;102055.66;2578662;55;20131;-73
2020/12/14 05:09:17;;;;;;;21.70;10.20;;;;;;;-4.76;97.17;102053.00;2578846;55;20127;-73
2020/12/14 05:11:45;;;;;;;20.08;11.12;;;;;;;-4.72;96.97;102063.44;2578550;55;20208;-76
2020/12/14 05:14:14;;;;;;;21.42;12.07;;;;;;;-4.70;96.80;102062.59;2578252;55;20120;-73
2020/12/14 05:16:43;;;;;;;22.80;11.55;;;;;;;-4.73;96.65;102062.53;2578187;55;20113;-73
2020/12/14 05:19:21;;;;;;;23.48;13.15;;;;;;;-4.68;96.99;102059.97;2573530;55;20149;-76
2020/12/14 05:21:50;;;;;;;22.80;11.23;;;;;;;-4.72;96.72;102072.09;2578494;55;20139;-75
2020/12/14 05:24:23;;;;;;;20.15;11.45;;;;;;;-4.71;96.98;102066.06;2578412;55;20703;-73
2020/12/14 05:26:51;;;;;;;23.17;12.15;;;;;;;-4.85;96.98;102057.22;2578293;55;20139;-76
2020/12/14 05:29:26;;;;;;;18.90;10.27;;;;;;;-4.71;96.83;102075.59;2578515;55;20139;-75
2020/12/14 05:32:18;;;;;;;23.52;12.40;;;;;;;-4.91;97.06;102025.06;2578435;55;20655;-73
2020/12/14 05:34:46;;;;;;;20.87;11.23;;;;;;;-4.68;96.82;102065.19;2577191;55;20105;-73
2020/12/14 05:37:15;;;;;;;16.83;9.50;;;;;;;-4.67;97.07;102057.41;2578249;55;20601;-76
2020/12/14 05:39:45;;;;;;;18.05;9.90;;;;;;;-4.67;96.65;102066.94;2578805;55;20147;-76
2020/12/14 05:42:16;;;;;;;19.87;9.65;;;;;;;-4.69;96.94;102053.91;2578471;55;20174;-75
2020/12/14 05:44:46;;;;;;;19.65;11.80;;;;;;;-4.72;97.17;102064.28;2578583;55;20125;-76
2020/12/14 05:47:26;;;;;;;18.12;10.55;;;;;;;-4.93;96.82;102018.94;2578489;55;20125;-73
2020/12/14 05:49:54;;;;;;;16.67;10.00;;;;;;;-4.70;97.24;102062.59;2578472;55;20127;-73
2020/12/14 05:52:23;;;;;;;18.37;9.77;;;;;;;-4.71;96.87;102062.56;2578468;55;20121;-75
2020/12/14 05:54:53;;;;;;;21.70;10.25;;;;;;;-4.72;97.56;102053.00;2578274;55;20496;-76
2020/12/14 05:57:32;;;;;;;18.92;9.80;;;;;;;-4.69;97.65;102053.91;2577909;55;20114;-73
2020/12/14 06:00:02;;;;;;;31.85;16.27;;;;;;;-4.75;97.28;102053.84;2577515;55;20109;-73
2020/12/14 06:02:31;;;;;;;35.45;17.02;;;;;;;-4.73;96.85;102061.69;2577988;55;20097;-74
2020/12/14 06:05:02;;;;;;;57.05;26.80;;;;;;;-4.77;96.84;102045.16;2578261;55;20624;-75
2020/12/14 06:07:32;;;;;;;47.17;21.58;;;;;;;-4.82;97.36;102057.22;2578361;55;20125;-73
2020/12/14 06:10:08;;;;;;;29.20;15.15;;;;;;;-4.73;97.65;102065.16;2578219;55;20113;-72
2020/12/14 06:12:38;;;;;;;30.83;15.85;;;;;;;-4.94;97.51;102035.41;2577899;55;20135;-77
2020/12/14 06:15:08;;;;;;;29.20;15.98;;;;;;;-4.73;98.05;102066.91;2577871;55;20120;-72
2020/12/14 06:17:37;;;;;;;28.40;16.27;;;;;;;-4.78;97.98;102064.25;2577502;55;20117;-76
2020/12/14 06:20:10;;;;;;;27.20;15.98;;;;;;;-4.75;97.69;102072.06;2577847;55;20139;-76
2020/12/14 06:22:42;;;;;;;36.47;18.60;;;;;;;-4.75;98.15;102072.97;2577660;55;20117;-78
2020/12/14 06:25:11;;;;;;;37.20;21.20;;;;;;;-4.74;97.87;102071.22;2577894;55;20637;-74
2020/12/14 06:27:38;;;;;;;35.90;20.12;;;;;;;-4.69;97.60;102069.53;2578004;55;20642;-73
2020/12/14 06:30:33;;;;;;;32.17;19.50;;;;;;;-4.59;97.97;102060.06;2578216;55;20484;-73
2020/12/14 06:33:05;;;;;;;33.13;18.20;;;;;;;-4.70;97.90;102049.56;2578255;55;20131;-73
2020/12/14 06:35:47;;;;;;;37.03;20.48;;;;;;;-4.64;97.71;102052.22;2572226;55;20132;-73
2020/12/14 06:38:37;;;;;;;37.30;17.15;;;;;;;-4.61;97.58;102060.09;2577620;55;20124;-74
2020/12/14 06:41:12;;;;;;;29.85;15.32;;;;;;;-4.64;97.49;102062.62;2577036;55;20646;-73
2020/12/14 06:43:39;;;;;;;33.58;15.77;;;;;;;-4.73;96.85;102046.91;2577468;55;20129;-73
2020/12/14 06:46:07;;;;;;;35.55;17.60;;;;;;;-4.66;97.32;102069.56;2578980;55;20109;-73
2020/12/14 06:48:43;;;;;;;37.83;18.83;;;;;;;-4.62;97.00;102068.72;2579045;55;20147;-73
2020/12/14 06:51:12;;;;;;;30.75;16.55;;;;;;;-4.70;96.98;102060.00;2579140;55;20624;-76
2020/12/14 06:53:45;;;;;;;37.67;19.20;;;;;;;-4.65;97.34;102071.31;2579089;55;20109;-76
2020/12/14 06:56:15;;;;;;;33.50;19.87;;;;;;;-4.75;97.90;102056.44;2579138;55;20518;-75
2020/12/14 06:58:44;;;;;;;51.10;25.08;;;;;;;-4.59;97.84;102080.91;2579168;55;20504;-73
2020/12/14 07:01:37;;;;;;;34.33;18.05;;;;;;;-4.53;97.31;102075.78;2578982;55;20120;-76
2020/12/14 07:04:27;;;;;;;30.42;13.20;;;;;;;-4.70;97.09;102051.28;2579102;55;20143;-73
2020/12/14 07:06:54;;;;;;;21.23;12.52;;;;;;;-4.57;97.23;102073.13;2578854;55;20112;-76
2020/12/14 07:09:26;;;;;;;20.95;12.43;;;;;;;-4.55;97.14;102080.09;2579362;55;20661;-73
2020/12/14 07:11:54;;;;;;;26.27;13.10;;;;;;;-4.54;97.14;102075.75;2579012;55;20117;-73
2020/12/14 07:14:28;;;;;;;28.90;14.68;;;;;;;-4.48;97.51;102078.44;2579006;55;20135;-73
2020/12/14 07:16:57;;;;;;;27.05;13.30;;;;;;;-4.49;97.66;102079.28;2579020;55;20121;-73
2020/12/14 07:19:35;;;;;;;24.12;13.68;;;;;;;-4.49;97.60;102080.16;2579085;55;20109;-76
2020/12/14 07:22:03;;;;;;;24.33;13.90;;;;;;;-4.48;97.55;102083.63;2578955;55;20117;-74
2020/12/14 07:24:35;;;;;;;21.25;11.88;;;;;;;-4.48;97.45;102078.44;2578953;55;20676;-73
2020/12/14 07:27:03;;;;;;;23.05;14.38;;;;;;;-4.50;97.41;102087.97;2578904;55;20124;-73
2020/12/14 07:29:30;;;;;;;29.80;15.02;;;;;;;-4.53;97.57;102085.31;2578924;55;20125;-76
2020/12/14 07:32:03;;;;;;;24.52;14.27;;;;;;;-4.52;97.69;102082.72;2578994;55;20113;-76
2020/12/14 07:34:32;;;;;;;27.20;15.73;;;;;;;-4.55;97.35;102092.25;2579087;55;20112;-72
2020/12/14 07:37:01;;;;;;;34.70;17.67;;;;;;;-4.54;97.48;102088.78;2578832;55;20120;-73
2020/12/14 07:39:28;;;;;;;33.95;16.77;;;;;;;-4.49;97.50;102097.53;2579061;55;20630;-73
2020/12/14 07:41:56;;;;;;;30.58;15.27;;;;;;;-4.44;96.64;102101.03;2579005;55;20113;-76
2020/12/14 07:44:26;;;;;;;27.90;16.12;;;;;;;-4.41;96.83;102101.09;2579177;55;20117;-73
2020/12/14 07:46:54;;;;;;;38.20;19.08;;;;;;;-4.47;97.32;102106.22;2578925;55;20635;-76
2020/12/14 07:49:23;;;;;;;31.48;18.90;;;;;;;-4.45;97.11;102101.91;2579256;55;20137;-76
2020/12/14 07:51:51;;;;;;;29.45;14.95;;;;;;;-4.45;96.41;102098.44;2578784;55;20110;-73
2020/12/14 07:54:20;;;;;;;29.52;14.32;;;;;;;-4.46;97.46;102102.75;2578830;55;20127;-76
2020/12/14 07:56:56;;;;;;;37.25;17.30;;;;;;;-4.48;97.51;102104.47;2578674;55;20120;-76
2020/12/14 07:59:25;;;;;;;28.80;14.02;;;;;;;-4.43;97.35;102102.78;2579111;55;20125;-76
2020/12/14 08:01:54;;;;;;;34.60;16.80;;;;;;;-4.45;97.35;102095.84;2573961;55;20109;-76
2020/12/14 08:04:29;;;;;;;34.05;15.77;;;;;;;-4.41;97.69;102103.69;2578974;55;20714;-73
2020/12/14 08:06:57;;;;;;;34.70;17.25;;;;;;;-4.41;97.47;102106.31;2578868;55;20113;-76
2020/12/14 08:09:30;;;;;;;42.17;18.50;;;;;;;-4.43;97.99;102097.56;2578835;55;20165;-76
2020/12/14 08:11:58;;;;;;;37.95;16.12;;;;;;;-4.41;97.76;102098.47;2578803;55;20117;-76
2020/12/14 08:14:26;;;;;;;42.75;19.80;;;;;;;-4.42;97.24;102086.28;2578761;55;20121;-73
2020/12/14 08:16:54;;;;;;;46.58;21.48;;;;;;;-4.29;97.42;102109.88;2579165;55;20319;-73
2020/12/14 08:19:23;;;;;;;34.67;17.45;;;;;;;-4.30;97.21;102108.13;2578752;55;20206;-73
2020/12/14 08:22:00;;;;;;;28.77;17.37;;;;;;;-4.31;97.64;102103.75;2578696;55;20117;-73
2020/12/14 08:24:29;;;;;;;35.33;18.62;;;;;;;-4.38;97.92;102106.31;2578980;55;20121;-76
2020/12/14 08:26:59;;;;;;;37.00;18.23;;;;;;;-4.34;97.45;102102.00;2578695;55;20124;-72
2020/12/14 08:29:29;;;;;;;31.25;16.12;;;;;;;-4.28;97.38;102111.63;2578915;55;20132;-76
2020/12/14 08:32:00;;;;;;;27.17;15.48;;;;;;;-4.27;97.08;102100.34;2578789;55;20539;-77
2020/12/14 08:34:37;;;;;;;29.02;15.00;;;;;;;-4.26;96.85;102092.53;2578840;55;20117;-76
2020/12/14 08:37:06;;;;;;;31.10;16.42;;;;;;;-4.40;97.34;102081.97;2578652;55;20128;-76
2020/12/14 08:39:34;;;;;;;31.05;14.98;;;;;;;-4.28;97.12;102096.84;2578771;55;20109;-76
2020/12/14 08:42:10;;;;;;;33.15;15.30;;;;;;;-4.26;97.35;102097.75;2578683;55;20128;-76
2020/12/14 08:44:39;;;;;;;31.45;14.63;;;;;;;-4.21;96.69;102103.84;2579004;55;20548;-76
2020/12/14 08:47:15;;;;;;;27.90;15.90;;;;;;;-4.22;97.20;102101.22;2578699;55;20126;-76
2020/12/14 08:49:44;;;;;;;36.08;19.23;;;;;;;-4.21;96.71;102102.97;2578836;55;20113;-73
2020/12/14 08:52:21;;;;;;;34.85;16.55;;;;;;;-4.19;96.67;102094.31;2578718;55;20629;-76
2020/12/14 08:54:57;;;;;;;28.10;14.13;;;;;;;-4.16;96.28;102092.59;2578738;55;20101;-73
2020/12/14 08:57:30;;;;;;;33.10;16.08;;;;;;;-4.17;96.00;102090.84;2578716;55;20167;-73
2020/12/14 09:00:04;;;;;;;30.70;16.50;;;;;;;-4.17;96.08;102091.72;2573650;55;20106;-76
2020/12/14 09:02:31;;;;;;;35.10;17.60;;;;;;;-4.23;96.65;102089.06;2578623;55;20125;-73
2020/12/14 09:04:59;;;;;;;31.62;16.23;;;;;;;-4.18;96.04;102095.19;2578657;55;20129;-77
2020/12/14 09:07:27;;;;;;;32.72;17.83;;;;;;;-4.20;96.51;102089.09;2578283;55;20113;-73
2020/12/14 09:09:55;;;;;;;34.25;14.73;;;;;;;-4.13;95.22;102084.81;2578713;55;20627;-73
2020/12/14 09:12:27;;;;;;;32.03;16.20;;;;;;;-4.16;95.94;102089.97;2578560;55;20112;-77
2020/12/14 09:15:04;;;;;;;35.92;17.85;;;;;;;-4.17;96.09;102089.12;2573624;55;20116;-76
2020/12/14 09:17:32;;;;;;;31.52;15.43;;;;;;;-4.18;95.86;102092.59;2578621;55;20503;-73
2020/12/14 09:20:00;;;;;;;33.60;15.30;;;;;;;-4.21;96.47;102092.53;2578562;55;20101;-73
2020/12/14 09:22:27;;;;;;;38.03;17.87;;;;;;;-4.19;95.86;102090.84;2578595;55;20119;-72
2020/12/14 09:24:55;;;;;;;31.50;16.15;;;;;;;-4.23;96.00;102091.66;2578667;55;20117;-72
2020/12/14 09:27:23;;;;;;;33.70;16.75;;;;;;;-4.21;96.15;102084.72;2578584;55;20139;-74
2020/12/14 09:29:50;;;;;;;40.22;18.42;;;;;;;-4.20;96.38;102089.09;2578936;55;20596;-76
2020/12/14 09:32:18;;;;;;;38.72;17.98;;;;;;;-4.21;96.62;102080.41;2578904;55;20113;-73
2020/12/14 09:34:46;;;;;;;38.00;18.77;;;;;;;-4.15;96.89;102082.19;2578718;55;20630;-73
2020/12/14 09:37:13;;;;;;;33.63;16.15;;;;;;;-4.13;96.36;102090.87;2578867;55;20507;-73
2020/12/14 09:39:41;;;;;;;40.17;17.60;;;;;;;-4.12;96.16;102087.41;2578701;55;20117;-76
2020/12/14 09:42:09;;;;;;;36.85;15.93;;;;;;;-4.12;96.19;102086.56;2573658;55;20102;-77
2020/12/14 09:44:36;;;;;;;47.03;19.35;;;;;;;-4.14;96.86;102086.53;2578595;55;20105;-72
2020/12/14 09:47:05;;;;;;;34.67;16.55;;;;;;;-4.12;96.32;102092.62;2578609;55;20139;-76
2020/12/14 09:49:32;;;;;;;37.15;16.02;;;;;;;-4.12;96.73;102090.00;2578460;55;20127;-73
2020/12/14 09:51:59;;;;;;;41.22;17.55;;;;;;;-4.09;96.97;102086.56;2578742;55;20138;-76
2020/12/14 09:54:27;;;;;;;40.63;17.92;;;;;;;-4.09;97.12;102078.75;2578608;55;20113;-77
2020/12/14 09:56:55;;;;;;;35.22;15.85;;;;;;;-4.06;96.63;102083.97;2578411;55;20120;-76
2020/12/14 09:59:23;;;;;;;33.97;16.77;;;;;;;-4.06;96.57;102078.75;2578795;55;20127;-77
2020/12/14 10:01:50;;;;;;;34.13;17.87;;;;;;;-4.04;96.91;102079.66;2578368;55;20131;-73
2020/12/14 10:04:18;;;;;;;31.45;17.17;;;;;;;-3.97;96.46;102080.59;2578439;55;20102;-76
2020/12/14 10:06:46;;;;;;;36.03;20.15;;;;;;;-3.97;96.06;102083.19;2578492;55;20135;-77
2020/12/14 10:09:14;;;;;;;39.25;18.37;;;;;;;-3.95;95.88;102081.47;2578541;55;20645;-72
2020/12/14 10:11:41;;;;;;;33.38;15.90;;;;;;;-3.94;96.05;102080.59;2578526;55;20118;-73
2020/12/14 10:14:08;;;;;;;33.85;16.40;;;;;;;-3.92;95.88;102078.88;2578377;55;20111;-73
2020/12/14 10:16:37;;;;;;;35.97;15.68;;;;;;;-3.93;95.84;102077.13;2578554;55;20128;-77
2020/12/14 10:19:05;;;;;;;83.97;38.50;;;;;;;-3.91;96.03;102083.22;2578281;55;20116;-76
2020/12/14 10:21:32;;;;;;;37.78;18.48;;;;;;;-3.95;96.02;102073.63;2578453;55;20109;-72
2020/12/14 10:24:00;;;;;;;43.13;18.20;;;;;;;-3.90;95.61;102074.56;2578434;55;20139;-73
2020/12/14 10:26:27;;;;;;;37.25;18.05;;;;;;;-3.93;96.45;102078.00;2578373;55;20114;-72
2020/12/14 10:28:54;;;;;;;35.05;17.15;;;;;;;-3.95;96.16;102078.84;2578615;55;20117;-73
2020/12/14 10:31:22;;;;;;;33.88;16.33;;;;;;;-3.95;96.03;102073.63;2578344;55;20519;-73
2020/12/14 10:33:51;;;;;;;34.55;15.98;;;;;;;-3.92;96.31;102068.44;2578389;55;20136;-77
2020/12/14 10:36:19;;;;;;;39.45;18.05;;;;;;;-3.97;96.28;102071.00;2578068;55;20136;-72
2020/12/14 10:38:47;;;;;;;40.42;17.37;;;;;;;-3.98;95.78;102064.06;2578473;55;20492;-73
2020/12/14 10:41:17;;;;;;;42.00;19.17;;;;;;;-4.00;96.42;102057.09;2578356;55;20121;-76
2020/12/14 10:43:44;;;;;;;35.97;18.52;;;;;;;-3.85;95.57;102059.81;2578426;55;20515;-73
2020/12/14 10:46:11;;;;;;;38.08;18.37;;;;;;;-3.85;95.43;102069.38;2578479;55;20121;-72
2020/12/14 10:48:39;;;;;;;38.20;16.55;;;;;;;-3.93;96.59;102067.59;2578307;55;20529;-73
2020/12/14 10:51:07;;;;;;;41.42;16.33;;;;;;;-3.96;95.94;102061.47;2578433;55;20117;-73
2020/12/14 10:53:34;;;;;;;46.30;19.17;;;;;;;-3.97;96.96;102057.13;2578320;55;20117;-76
2020/12/14 10:56:02;;;;;;;39.33;18.17;;;;;;;-3.94;96.65;102054.53;2578243;55;20140;-73
2020/12/14 10:58:29;;;;;;;39.88;18.20;;;;;;;-3.91;96.37;102054.53;2578375;55;20493;-73
2020/12/14 11:00:56;;;;;;;40.15;18.77;;;;;;;-3.86;95.87;102054.56;2578217;55;20562;-73
2020/12/14 11:03:25;;;;;;;39.63;19.52;;;;;;;-3.83;95.91;102057.22;2578636;55;20109;-76
2020/12/14 11:05:53;;;;;;;35.85;18.25;;;;;;;-3.84;95.54;102058.06;2578221;55;20727;-76
2020/12/14 11:08:22;;;;;;;37.20;18.25;;;;;;;-3.89;96.18;102055.44;2578287;55;20124;-73
2020/12/14 11:10:50;;;;;;;33.97;17.08;;;;;;;-3.92;96.42;102055.41;2573112;55;20121;-73
2020/12/14 11:13:18;;;;;;;36.13;16.73;;;;;;;-3.92;96.81;102063.22;2578313;55;20117;-73
2020/12/14 11:15:45;;;;;;;37.25;19.35;;;;;;;-3.91;96.48;102054.53;2578181;55;20198;-77
2020/12/14 11:18:12;;;;;;;39.05;18.95;;;;;;;-3.91;96.52;102057.13;2578305;55;20108;-72
2020/12/14 11:20:44;;;;;;;;;;;;;;;-3.74;95.92;102059.00;2578503;55;20155;-73